createdAt,value
2022-12-31T10:09:53.470Z,100253.23
2022-12-31T10:12:34.539Z,100244.44
2022-12-31T10:15:12.557Z,100239.27
2022-12-31T10:17:52.399Z,100236.38
2022-12-31T10:20:41.592Z,100238.08
2022-12-31T10:23:33.408Z,100234.90
2022-12-31T10:26:13.933Z,100231.27
2022-12-31T10:28:49.065Z,100223.95
2022-12-31T10:31:30.011Z,100219.46
2022-12-31T10:34:12.658Z,100226.54
2022-12-31T10:36:54.115Z,100223.41
2022-12-31T10:39:31.522Z,100213.29
2022-12-31T10:42:18.485Z,100219.41
2022-12-31T13:20:56.634Z,100140.55
2022-12-31T13:23:33.606Z,100139.48
2022-12-31T13:26:08.360Z,100131.16
2022-12-31T13:28:41.880Z,100140.94
2022-12-31T13:31:13.426Z,100140.81
2022-12-31T13:33:44.304Z,100141.52
2022-12-31T13:36:16.654Z,100141.69
2022-12-31T13:38:47.276Z,100141.52
2022-12-31T13:41:19.128Z,100141.63
2022-12-31T13:43:51.904Z,100138.21
2022-12-31T13:46:33.707Z,100140.27
2022-12-31T13:49:05.461Z,100143.52
2022-12-31T13:51:40.932Z,100144.66
2022-12-31T13:54:24.800Z,100145.45
2022-12-31T13:56:54.781Z,100148.15
2022-12-31T13:59:26.538Z,100140.14
2022-12-31T14:01:58.131Z,100145.81
2022-12-31T14:04:30.457Z,100141.83
2022-12-31T14:07:02.703Z,100140.96
2022-12-31T14:09:33.210Z,100146.43
2022-12-31T14:12:17.914Z,100146.92
2022-12-31T14:14:52.288Z,100145.48
2022-12-31T14:17:24.792Z,100142.96
2022-12-31T14:20:03.678Z,100137.63
2022-12-31T14:22:36.288Z,100135.46
2022-12-31T14:25:09.580Z,100135.41
2022-12-31T14:27:41.570Z,100131.48
2022-12-31T14:30:15.700Z,100128.05
2022-12-31T14:33:09.015Z,100120.95
2022-12-31T14:35:49.203Z,100122.38
2022-12-31T14:38:24.197Z,100120.95
2022-12-31T14:41:00.829Z,100114.63
2022-12-31T14:43:34.732Z,100115.23
2022-12-31T14:46:12.759Z,100117.63
2022-12-31T14:48:48.960Z,100117.23
2022-12-31T14:51:18.926Z,100121.59
2022-12-31T14:53:54.160Z,100121.98
2022-12-31T14:56:41.263Z,100113.11
2022-12-31T14:59:26.415Z,100107.26
2022-12-31T15:01:58.207Z,100107.95
2022-12-31T15:04:33.791Z,100106.45
2022-12-31T15:07:09.876Z,100112.41
2022-12-31T15:09:59.601Z,100107.23
2022-12-31T15:12:44.908Z,100114.64
2022-12-31T15:15:25.486Z,100108.75
2022-12-31T15:18:00.876Z,100114.05
2022-12-31T15:21:08.731Z,100119.17
2022-12-31T15:23:39.372Z,100120.09
2022-12-31T15:26:21.038Z,100123.77
2022-12-31T15:28:57.579Z,100130.60
2022-12-31T15:31:27.787Z,100136.52
2022-12-31T15:33:59.188Z,100131.38
2022-12-31T15:36:29.904Z,100126.93
2022-12-31T15:39:22.072Z,100128.47
2022-12-31T15:42:36.336Z,100129.98
2022-12-31T15:44:52.229Z,100130.59
2022-12-31T15:47:27.214Z,100132.43
2022-12-31T15:49:57.668Z,100128.48
2022-12-31T15:52:29.504Z,100127.33
2022-12-31T15:55:22.213Z,100125.44
2022-12-31T15:57:52.109Z,100117.59
2022-12-31T16:00:23.190Z,100117.23
2022-12-31T16:02:57.339Z,100114.57
2022-12-31T16:05:28.064Z,100118.70
2022-12-31T16:07:59.124Z,100114.20
2022-12-31T16:10:30.381Z,100118.63
2022-12-31T16:13:00.421Z,100110.27
2022-12-31T16:15:32.850Z,100109.66
2022-12-31T16:18:04.502Z,100105.77
2022-12-31T16:20:43.883Z,100101.92
2022-12-31T16:23:20.062Z,100099.99
2022-12-31T16:25:50.025Z,100106.05
2022-12-31T16:28:25.063Z,100099.80
2022-12-31T16:30:59.836Z,100095.45
2022-12-31T16:33:29.868Z,100085.29
2022-12-31T22:03:47.777Z,100020.56
2022-12-31T22:06:23.127Z,100012.88
2022-12-31T22:08:53.959Z,100007.04
2022-12-31T22:11:24.540Z,100011.30
2022-12-31T22:13:54.436Z,100006.23
2022-12-31T22:16:24.339Z,99999.83
2022-12-31T22:18:56.014Z,100000.95
2022-12-31T22:21:26.628Z,100007.36
2022-12-31T22:23:58.719Z,100002.34
2022-12-31T22:26:29.348Z,100005.61
2022-12-31T22:28:59.792Z,100001.33
2022-12-31T22:31:30.259Z,100004.41
2022-12-31T22:34:00.849Z,100003.33
2022-12-31T22:36:30.823Z,99995.45
2022-12-31T22:39:00.588Z,99996.66
2022-12-31T22:41:30.391Z,100000.52
2022-12-31T22:44:04.637Z,99999.11
2022-12-31T22:46:36.567Z,99996.27
2022-12-31T22:49:06.687Z,99986.36
2022-12-31T22:51:56.256Z,99994.56
2022-12-31T22:54:26.892Z,99989.29
2022-12-31T22:56:57.239Z,99994.38
2022-12-31T22:59:27.004Z,99988.05
2022-12-31T23:01:56.840Z,99986.73
2022-12-31T23:04:26.585Z,99990.53
2022-12-31T23:06:56.387Z,99997.59
2022-12-31T23:09:44.566Z,99999.38
2022-12-31T23:12:14.686Z,99991.41
2022-12-31T23:15:03.227Z,99993.30
2022-12-31T23:17:52.319Z,99992.36
2022-12-31T23:20:41.748Z,99986.48
2022-12-31T23:23:14.779Z,99981.73
2022-12-31T23:25:45.594Z,99980.59
2022-12-31T23:28:16.349Z,99977.61
